createdAt,value
2019-03-27T00:01:30.175Z,100740.55
2019-03-27T00:03:58.626Z,100738.25
2019-03-27T00:06:26.879Z,100734.57
2019-03-27T00:08:55.113Z,100731.69
2019-03-27T00:11:23.352Z,100732.62
2019-03-27T00:13:51.895Z,100745.75
2019-03-27T00:16:20.131Z,100753.45
2019-03-27T00:18:48.358Z,100759.64
2019-03-27T00:21:16.593Z,100762.52
2019-03-27T00:23:44.822Z,100765.05
2019-03-27T00:26:13.053Z,100758.31
2019-03-27T00:28:41.280Z,100763.23
2019-03-27T00:31:11.910Z,100759.05
2019-03-27T00:33:39.707Z,100758.59
2019-03-27T00:36:08.165Z,100757.59
2019-03-27T00:38:36.632Z,100765.57
2019-03-27T00:41:04.861Z,100763.27
2019-03-27T00:43:33.095Z,100768.13
2019-03-27T00:46:01.329Z,100762.84
2019-03-27T00:48:29.567Z,100764.05
2019-03-27T00:50:58.033Z,100763.15
2019-03-27T00:53:26.265Z,100767.98
2019-03-27T00:55:54.497Z,100776.80
2019-03-27T00:58:22.970Z,100773.02
2019-03-27T01:01:05.609Z,100785.80
2019-03-27T01:03:33.844Z,100791.94
2019-03-27T01:06:02.506Z,100800.92
2019-03-27T01:08:30.743Z,100796.61
2019-03-27T01:10:58.965Z,100793.80
2019-03-27T01:13:27.201Z,100792.81
2019-03-27T01:15:55.430Z,100792.30
2019-03-27T01:18:23.888Z,100786.55
2019-03-27T01:20:52.345Z,100788.88
2019-03-27T01:23:20.821Z,100754.31
2019-03-27T01:25:49.035Z,100782.75
2019-03-27T01:28:17.269Z,100785.17
2019-03-27T01:30:45.722Z,100778.03
2019-03-27T01:33:14.182Z,100786.58
2019-03-27T01:35:42.414Z,100780.07
2019-03-27T01:38:10.651Z,100782.36
2019-03-27T01:40:38.876Z,100785.84
2019-03-27T01:43:07.342Z,100778.05
2019-03-27T01:45:35.795Z,100777.41
2019-03-27T01:48:04.018Z,100792.59
2019-03-27T01:50:32.487Z,100785.31
2019-03-27T01:53:00.718Z,100792.60
2019-03-27T01:55:28.951Z,100789.28
2019-03-27T01:57:57.401Z,100788.50
2019-03-27T02:00:25.868Z,100788.39
2019-03-27T02:02:54.099Z,100779.83
2019-03-27T02:05:22.337Z,100787.84
2019-03-27T02:07:50.561Z,100794.24
2019-03-27T02:10:19.098Z,100789.25
2019-03-27T02:12:47.541Z,100794.47
2019-03-27T02:15:15.847Z,100793.44
2019-03-27T02:17:44.142Z,100797.52
2019-03-27T02:20:12.382Z,100787.98
2019-03-27T02:22:40.829Z,100796.25
2019-03-27T02:25:09.290Z,100794.46
2019-03-27T02:27:37.519Z,100792.80
2019-03-27T02:30:08.525Z,100793.45
2019-03-27T02:32:36.800Z,100783.39
2019-03-27T02:35:05.649Z,100759.65
2019-03-27T02:37:33.891Z,100783.63
2019-03-27T02:40:02.114Z,100787.98
2019-03-27T02:42:30.577Z,100787.98
2019-03-27T02:44:59.048Z,100784.40
2019-03-27T02:47:27.499Z,100786.02
2019-03-27T02:49:55.730Z,100787.03
2019-03-27T02:52:23.963Z,100787.03
2019-03-27T02:54:52.194Z,100789.16
2019-03-27T02:57:20.425Z,100789.16
2019-03-27T02:59:48.661Z,100793.68
2019-03-27T03:02:16.901Z,100793.68
2019-03-27T03:04:45.354Z,100774.86
2019-03-27T03:07:13.594Z,100780.91
2019-03-27T03:09:42.061Z,100765.84
2019-03-27T03:12:10.302Z,100765.84
2019-03-27T03:14:38.543Z,100801.76
2019-03-27T03:17:06.776Z,100801.76
2019-03-27T03:19:35.087Z,100804.02
2019-03-27T03:22:03.330Z,100800.81
2019-03-27T03:24:31.784Z,100800.81
2019-03-27T03:27:00.033Z,100806.76
2019-03-27T03:29:28.254Z,100806.76
2019-03-27T03:31:56.505Z,100809.30
2019-03-27T03:34:24.718Z,100814.62
2019-03-27T03:36:52.961Z,100803.44
2019-03-27T03:39:21.419Z,100803.44
2019-03-27T03:41:49.832Z,100818.23
2019-03-27T03:44:18.062Z,100814.52
2019-03-27T03:46:58.847Z,100823.19
2019-03-27T03:49:16.253Z,100821.62
2019-03-27T03:51:44.484Z,100821.62
2019-03-27T03:54:13.005Z,100820.07
2019-03-27T03:56:41.515Z,100795.65
2019-03-27T03:59:11.886Z,100827.94
2019-03-27T04:01:41.187Z,100819.39
2019-03-27T04:04:09.436Z,100823.53
2019-03-27T04:06:37.885Z,100823.53
2019-03-27T04:09:06.959Z,100825.56
2019-03-27T04:11:35.189Z,100832.76
2019-03-27T04:14:03.430Z,100827.73
2019-03-27T04:16:31.653Z,100827.73
2019-03-27T04:19:00.129Z,100818.93
2019-03-27T04:21:28.358Z,100839.33
2019-03-27T04:23:56.618Z,100840.59
2019-03-27T04:26:25.051Z,100852.19
2019-03-27T04:28:53.510Z,100846.44
2019-03-27T04:31:21.749Z,100843.00
2019-03-27T04:33:49.990Z,100844.47
2019-03-27T04:36:18.238Z,100844.47
2019-03-27T04:38:46.684Z,100849.72
2019-03-27T04:41:14.988Z,100811.97
2019-03-27T04:43:43.229Z,100844.59
2019-03-27T04:46:11.471Z,100844.31
2019-03-27T04:48:39.701Z,100844.31
2019-03-27T04:51:07.928Z,100829.96
2019-03-27T04:53:36.399Z,100854.64
2019-03-27T04:56:04.645Z,100859.58
2019-03-27T04:58:32.868Z,100861.46
2019-03-27T05:01:01.098Z,100861.17
2019-03-27T05:03:29.565Z,100861.17
2019-03-27T05:05:57.796Z,100852.48
2019-03-27T05:08:26.035Z,100861.38
2019-03-27T05:10:54.268Z,100862.12
2019-03-27T05:13:22.733Z,100868.66
2019-03-27T05:15:50.964Z,100868.66
2019-03-27T05:18:19.204Z,100869.34
2019-03-27T05:20:47.666Z,100859.44
2019-03-27T05:23:16.126Z,100864.52
2019-03-27T05:25:44.351Z,100866.54
2019-03-27T05:28:12.817Z,100873.88
2019-03-27T05:30:41.271Z,100873.88
2019-03-27T05:33:09.504Z,100878.95
2019-03-27T05:35:37.744Z,100878.28
2019-03-27T05:38:05.973Z,100878.28
2019-03-27T05:40:34.439Z,100879.18
2019-03-27T05:43:02.669Z,100882.47
2019-03-27T05:45:30.902Z,100875.97
2019-03-27T05:48:00.099Z,100882.77
2019-03-27T05:50:28.688Z,100890.31
2019-03-27T05:52:56.917Z,100890.31
2019-03-27T05:55:26.665Z,100891.76
2019-03-27T05:57:54.975Z,100891.76
2019-03-27T06:00:23.219Z,100889.66
2019-03-27T06:02:51.446Z,100907.38
2019-03-27T06:05:19.754Z,100900.38
2019-03-27T06:07:47.991Z,100905.52
2019-03-27T06:10:16.594Z,100900.81
2019-03-27T06:12:44.816Z,100907.78
2019-03-27T06:15:13.129Z,100909.11
2019-03-27T06:17:41.370Z,100913.13
2019-03-27T06:20:09.786Z,100900.79
2019-03-27T06:22:38.052Z,100900.79
2019-03-27T06:25:07.586Z,100911.85
2019-03-27T06:27:36.054Z,100915.06
2019-03-27T06:30:05.266Z,100899.94
2019-03-27T06:32:33.502Z,100899.94
2019-03-27T06:35:01.974Z,100906.59
2019-03-27T06:37:30.208Z,100904.25
2019-03-27T06:39:58.449Z,100904.25
2019-03-27T06:42:26.689Z,100904.39
2019-03-27T06:44:54.927Z,100904.39
2019-03-27T06:47:23.379Z,100907.91
2019-03-27T06:49:51.847Z,100908.84
2019-03-27T06:52:20.350Z,100908.49
2019-03-27T06:54:48.553Z,100906.03
2019-03-27T06:57:17.022Z,100903.27
2019-03-27T06:59:45.489Z,100903.27
2019-03-27T07:02:13.713Z,100886.41
2019-03-27T07:04:42.186Z,100915.04
2019-03-27T07:07:10.423Z,100916.45
2019-03-27T07:09:38.678Z,100915.97
2019-03-27T07:12:20.119Z,100918.16
2019-03-27T07:14:37.086Z,100925.19
2019-03-27T07:17:05.365Z,100924.79
2019-03-27T07:19:33.847Z,100924.79
2019-03-27T07:22:02.315Z,100931.41
2019-03-27T07:24:30.544Z,100938.42
2019-03-27T07:26:59.019Z,100932.80
2019-03-27T07:29:27.254Z,100932.67
2019-03-27T07:31:55.729Z,100933.78
2019-03-27T07:34:24.196Z,100933.98
2019-03-27T07:36:56.038Z,100930.34
2019-03-27T07:39:22.613Z,100929.50
2019-03-27T07:41:51.127Z,100941.20
2019-03-27T07:44:19.576Z,100939.84
2019-03-27T07:46:47.838Z,100941.47
2019-03-27T07:49:16.089Z,100943.84
2019-03-27T07:51:44.351Z,100947.12
2019-03-27T07:54:12.921Z,100949.72
2019-03-27T07:56:41.160Z,100955.14
2019-03-27T07:59:09.623Z,100934.80
2019-03-27T08:01:37.866Z,100954.98
2019-03-27T08:04:06.101Z,100956.83
2019-03-27T08:06:34.339Z,100958.31
2019-03-27T08:09:02.571Z,100964.62
2019-03-27T08:11:30.909Z,100963.97
2019-03-27T08:13:59.209Z,100960.97
2019-03-27T08:16:27.456Z,100963.91
2019-03-27T08:19:06.975Z,100966.18
2019-03-27T08:21:25.667Z,100971.55
2019-03-27T08:23:53.906Z,100973.83
2019-03-27T08:26:22.147Z,100974.95
2019-03-27T08:28:50.378Z,100978.33
2019-03-27T08:31:18.611Z,100977.38
2019-03-27T08:33:46.855Z,100973.98
2019-03-27T08:36:15.374Z,100971.72
2019-03-27T08:38:43.970Z,100971.27
2019-03-27T08:41:12.227Z,100949.39
2019-03-27T08:43:40.472Z,100977.22
2019-03-27T08:46:08.996Z,100964.26
2019-03-27T08:48:39.177Z,100970.86
2019-03-27T08:51:07.585Z,100972.30
2019-03-27T08:53:36.078Z,100971.64
2019-03-27T08:56:04.311Z,100971.86
2019-03-27T08:58:32.548Z,100971.06
2019-03-27T09:01:01.128Z,100975.93
2019-03-27T09:03:29.616Z,100968.44
2019-03-27T09:05:58.492Z,100969.83
2019-03-27T09:08:26.722Z,100965.00
2019-03-27T09:10:55.197Z,100963.25
2019-03-27T09:13:23.430Z,100964.36
2019-03-27T09:15:51.668Z,100964.77
2019-03-27T09:18:19.903Z,100964.79
2019-03-27T09:20:48.371Z,100961.16
2019-03-27T09:23:16.834Z,100962.14
2019-03-27T09:25:45.327Z,100963.66
2019-03-27T09:28:13.565Z,100960.00
2019-03-27T09:30:41.808Z,100966.24
2019-03-27T09:33:10.286Z,100966.16
2019-03-27T09:35:38.842Z,100967.05
2019-03-27T09:38:07.079Z,100970.91
2019-03-27T09:40:35.322Z,100981.67
2019-03-27T09:43:03.566Z,100980.81
2019-03-27T09:45:31.817Z,100981.10
2019-03-27T09:48:00.335Z,100984.73
2019-03-27T09:50:28.916Z,100988.60
2019-03-27T09:52:57.153Z,100992.67
2019-03-27T09:55:25.677Z,100980.95
2019-03-27T09:57:54.163Z,100990.95
2019-03-27T10:00:48.330Z,100987.96
2019-03-27T10:03:16.859Z,100984.91
2019-03-27T10:05:45.337Z,100987.96
2019-03-27T10:08:13.566Z,100983.91
2019-03-27T10:10:41.806Z,100989.80
2019-03-27T10:13:10.044Z,100990.09
2019-03-27T10:15:38.294Z,100993.36
2019-03-27T10:18:06.752Z,100993.86
2019-03-27T10:20:35.233Z,100987.41
2019-03-27T10:23:03.472Z,100981.28
2019-03-27T10:25:31.713Z,100982.64
2019-03-27T10:27:59.952Z,100981.23
2019-03-27T10:30:28.205Z,100985.55
2019-03-27T10:32:56.445Z,100983.82
2019-03-27T10:35:24.722Z,100981.14
2019-03-27T10:37:53.217Z,100984.07
2019-03-27T10:40:21.466Z,100984.85
2019-03-27T10:42:49.711Z,100985.75
2019-03-27T10:45:18.360Z,100983.72
2019-03-27T10:47:46.840Z,100988.12
2019-03-27T10:50:17.933Z,100990.02
2019-03-27T10:52:45.717Z,100997.97
2019-03-27T10:55:14.124Z,101000.75
2019-03-27T10:57:42.369Z,101000.02
2019-03-27T11:00:11.080Z,100995.36
2019-03-27T11:02:39.551Z,100990.86
2019-03-27T11:05:07.925Z,100988.27
2019-03-27T11:07:36.206Z,100992.58
2019-03-27T11:10:06.815Z,100990.19
2019-03-27T11:12:35.230Z,100988.73
2019-03-27T11:15:05.256Z,100992.63
2019-03-27T11:17:33.505Z,100990.04
2019-03-27T11:20:01.740Z,100993.36
2019-03-27T11:22:30.220Z,100993.07
2019-03-27T11:24:58.460Z,100978.34
2019-03-27T11:27:26.955Z,100985.21
2019-03-27T11:29:55.418Z,100980.20
2019-03-27T11:32:23.890Z,100982.07
2019-03-27T11:34:52.136Z,100983.55
2019-03-27T11:37:20.381Z,100972.19
2019-03-27T11:39:48.613Z,100970.91
2019-03-27T11:42:16.857Z,100976.13
2019-03-27T11:44:45.098Z,100978.19
2019-03-27T11:47:13.343Z,100975.87
2019-03-27T11:49:41.584Z,100976.77
2019-03-27T11:52:09.832Z,100977.61
2019-03-27T11:54:38.073Z,100974.89
2019-03-27T11:57:07.141Z,100973.60
2019-03-27T11:59:35.379Z,100977.45
2019-03-27T12:02:03.628Z,100974.88
2019-03-27T12:04:31.867Z,100969.47
2019-03-27T12:07:00.114Z,100980.04
2019-03-27T12:09:28.573Z,100970.65
2019-03-27T12:11:56.820Z,100972.80
2019-03-27T12:14:25.329Z,100971.28
2019-03-27T12:16:53.808Z,100976.05
2019-03-27T12:19:22.283Z,100972.52
2019-03-27T12:21:50.768Z,100971.40
2019-03-27T12:24:19.254Z,100971.80
2019-03-27T12:26:47.496Z,100952.13
2019-03-27T12:29:18.156Z,100966.91
2019-03-27T12:31:45.791Z,100967.37
2019-03-27T12:34:14.029Z,100965.01
2019-03-27T12:36:42.501Z,100960.59
2019-03-27T12:39:10.778Z,100958.81
2019-03-27T12:41:39.030Z,100958.63
2019-03-27T12:44:07.265Z,100962.81
2019-03-27T12:46:35.509Z,100968.11
2019-03-27T12:49:03.739Z,100955.12
2019-03-27T12:51:31.985Z,100957.43
2019-03-27T12:54:00.530Z,100952.35
2019-03-27T12:56:28.774Z,100960.50
2019-03-27T12:58:57.006Z,100957.83
2019-03-27T13:01:25.479Z,100956.63
2019-03-27T13:03:53.932Z,100954.67
2019-03-27T13:06:22.183Z,100953.02
2019-03-27T13:08:50.407Z,100948.02
2019-03-27T13:11:19.179Z,100944.71
2019-03-27T13:13:47.739Z,100947.23
2019-03-27T13:16:15.980Z,100950.45
2019-03-27T13:18:44.218Z,100954.70
2019-03-27T13:21:25.357Z,100949.39
2019-03-27T13:23:42.412Z,100949.29
2019-03-27T13:26:10.895Z,100950.43
2019-03-27T13:28:48.653Z,100953.17
2019-03-27T13:31:09.463Z,100948.89
2019-03-27T13:33:37.984Z,100945.09
2019-03-27T13:36:07.746Z,100943.80
2019-03-27T13:38:36.547Z,100942.34
2019-03-27T13:41:04.785Z,100943.95
2019-03-27T13:43:33.029Z,100942.91
2019-03-27T13:46:01.265Z,100936.00
2019-03-27T13:48:29.510Z,100944.75
2019-03-27T13:50:57.738Z,100941.38
2019-03-27T13:53:25.983Z,100940.39
2019-03-27T13:55:54.435Z,100943.38
2019-03-27T13:58:22.910Z,100934.02
2019-03-27T14:00:51.140Z,100934.83
2019-03-27T14:03:19.665Z,100935.31
2019-03-27T14:05:48.119Z,100932.97
2019-03-27T14:08:16.379Z,100914.93
2019-03-27T14:10:44.817Z,100931.11
2019-03-27T14:13:13.144Z,100930.93
2019-03-27T14:15:41.600Z,100924.34
2019-03-27T14:18:10.148Z,100923.22
2019-03-27T14:20:38.381Z,100924.14
2019-03-27T14:23:07.013Z,100914.38
2019-03-27T14:25:35.490Z,100917.59
2019-03-27T14:28:04.178Z,100913.66
2019-03-27T14:30:50.028Z,100916.13
2019-03-27T14:33:18.638Z,100914.05
2019-03-27T14:35:47.131Z,100905.55
2019-03-27T14:38:15.823Z,100912.00
2019-03-27T14:40:44.304Z,100914.34
2019-03-27T14:43:12.807Z,100909.66
2019-03-27T14:45:41.366Z,100898.66
2019-03-27T14:48:09.852Z,100913.12
2019-03-27T14:50:38.341Z,100916.11
2019-03-27T14:53:06.875Z,100920.88
2019-03-27T14:55:35.108Z,100914.19
2019-03-27T14:58:03.359Z,100912.66
2019-03-27T15:00:31.589Z,100916.77
2019-03-27T15:03:00.130Z,100914.67
2019-03-27T15:05:28.378Z,100912.95
2019-03-27T15:07:56.893Z,100915.05
2019-03-27T15:10:25.372Z,100913.94
2019-03-27T15:12:53.851Z,100914.87
2019-03-27T15:15:22.085Z,100913.10
2019-03-27T15:17:50.331Z,100909.44
2019-03-27T15:20:18.892Z,100901.19
2019-03-27T15:22:47.142Z,100897.23
2019-03-27T15:25:15.360Z,100901.55
2019-03-27T15:27:43.599Z,100905.55
2019-03-27T15:30:13.303Z,100901.58
2019-03-27T15:32:41.817Z,100904.56
2019-03-27T15:35:10.417Z,100904.05
2019-03-27T15:37:38.978Z,100901.82
2019-03-27T15:40:08.093Z,100897.45
2019-03-27T15:42:37.352Z,100896.41
2019-03-27T15:45:08.990Z,100899.80
2019-03-27T15:47:37.459Z,100902.98
2019-03-27T15:50:06.381Z,100906.86
2019-03-27T15:52:36.813Z,100903.14
2019-03-27T15:55:05.647Z,100897.61
2019-03-27T15:57:34.285Z,100896.00
2019-03-27T16:00:03.057Z,100900.55
2019-03-27T16:02:31.324Z,100898.61
2019-03-27T16:04:59.791Z,100896.59
2019-03-27T16:07:31.093Z,100899.25
2019-03-27T16:09:58.448Z,100900.16
2019-03-27T16:12:26.961Z,100909.94
2019-03-27T16:14:55.186Z,100913.41
2019-03-27T16:17:23.811Z,100912.60
2019-03-27T16:19:52.294Z,100914.70
2019-03-27T16:22:20.537Z,100913.23
2019-03-27T16:24:49.260Z,100912.60
2019-03-27T16:27:17.574Z,100914.78
2019-03-27T16:29:46.036Z,100913.98
2019-03-27T16:32:15.626Z,100910.95
2019-03-27T16:34:44.213Z,100908.71
2019-03-27T16:37:12.872Z,100912.36
2019-03-27T16:39:41.377Z,100908.03
2019-03-27T16:42:09.621Z,100914.06
2019-03-27T16:44:37.946Z,100909.30
2019-03-27T16:47:06.195Z,100903.45
2019-03-27T16:49:34.423Z,100907.25
2019-03-27T16:52:02.666Z,100910.11
2019-03-27T16:54:30.898Z,100906.64
2019-03-27T16:56:59.420Z,100915.20
2019-03-27T16:59:27.876Z,100904.45
2019-03-27T17:01:56.347Z,100910.52
2019-03-27T17:04:24.826Z,100918.34
2019-03-27T17:06:53.286Z,100919.86
2019-03-27T17:09:21.539Z,100925.99
2019-03-27T17:11:49.764Z,100925.08
2019-03-27T17:14:18.005Z,100929.41
2019-03-27T17:16:46.254Z,100926.48
2019-03-27T17:19:14.500Z,100925.31
2019-03-27T17:21:42.745Z,100932.28
2019-03-27T17:24:11.221Z,100936.98
2019-03-27T17:26:39.490Z,100942.55
2019-03-27T17:29:07.699Z,100940.42
2019-03-27T17:31:36.172Z,100943.05
2019-03-27T17:34:04.678Z,100951.27
2019-03-27T17:36:32.941Z,100952.63
2019-03-27T17:39:01.674Z,100948.02
2019-03-27T17:41:29.919Z,100956.70
2019-03-27T17:43:58.437Z,100961.01
2019-03-27T17:46:26.665Z,100963.59
2019-03-27T17:48:54.910Z,100963.22
2019-03-27T17:51:23.470Z,100964.73
2019-03-27T17:53:51.714Z,100968.09
2019-03-27T17:56:20.231Z,100963.16
2019-03-27T17:58:48.714Z,100968.63
2019-03-27T18:03:46.241Z,100978.42
2019-03-27T18:06:14.488Z,100975.41
2019-03-27T18:08:42.911Z,100981.13
2019-03-27T18:11:11.456Z,100979.86
2019-03-27T18:13:39.704Z,100979.94
2019-03-27T18:16:08.171Z,100983.38
2019-03-27T18:18:36.416Z,100986.24
2019-03-27T18:21:04.888Z,100983.97
2019-03-27T18:23:45.137Z,100988.97
2019-03-27T18:26:03.080Z,100986.68
2019-03-27T18:28:31.322Z,100992.75
2019-03-27T18:30:59.786Z,100990.23
2019-03-27T18:33:28.098Z,100999.61
2019-03-27T18:35:56.562Z,100996.16
2019-03-27T18:38:24.796Z,100999.78
2019-03-27T18:40:53.030Z,101002.50
2019-03-27T18:43:21.494Z,101011.82
2019-03-27T18:45:49.740Z,101009.90
2019-03-27T18:48:17.963Z,101010.73
2019-03-27T18:50:46.203Z,101011.48
2019-03-27T18:53:14.438Z,101011.92
2019-03-27T18:55:42.679Z,101010.80
2019-03-27T18:58:11.142Z,101005.05
2019-03-27T19:00:39.629Z,101004.47
2019-03-27T19:03:08.160Z,101009.26
2019-03-27T19:05:36.404Z,101013.04
2019-03-27T19:08:04.631Z,101016.23
2019-03-27T19:10:32.868Z,101019.85
2019-03-27T19:13:01.357Z,101020.47
2019-03-27T19:15:29.599Z,101015.56
2019-03-27T19:17:58.166Z,101023.06
2019-03-27T19:20:26.594Z,101019.67
2019-03-27T19:22:54.836Z,101013.69
2019-03-27T19:25:23.312Z,101016.16
2019-03-27T19:27:51.543Z,101017.00
2019-03-27T19:30:19.783Z,101022.42
2019-03-27T19:32:48.286Z,101025.44
2019-03-27T19:35:16.529Z,101020.22
2019-03-27T19:37:44.763Z,101023.05
2019-03-27T19:40:13.182Z,101020.30
2019-03-27T19:42:41.407Z,101024.53
2019-03-27T19:45:09.657Z,101016.48
2019-03-27T19:47:37.890Z,101022.28
2019-03-27T19:50:06.905Z,101025.02
2019-03-27T19:52:35.142Z,101029.14
2019-03-27T19:55:03.750Z,101030.23
2019-03-27T19:57:32.292Z,101025.89
2019-03-27T20:00:00.525Z,101019.80
2019-03-27T20:02:29.081Z,101023.40
2019-03-27T20:04:57.513Z,101026.48
2019-03-27T20:07:35.963Z,101018.05
2019-03-27T20:09:56.165Z,101026.27
2019-03-27T20:12:24.401Z,101027.19
2019-03-27T20:14:52.867Z,101026.04
2019-03-27T20:17:21.364Z,101034.23
2019-03-27T20:19:49.827Z,101030.17
2019-03-27T20:22:18.079Z,101029.92
2019-03-27T20:24:46.321Z,101039.78
2019-03-27T20:27:14.560Z,101037.61
2019-03-27T20:29:42.797Z,101036.63
2019-03-27T20:32:11.038Z,101029.84
2019-03-27T20:34:39.500Z,101034.20
2019-03-27T20:37:07.749Z,101035.09
2019-03-27T20:39:36.206Z,101040.08
2019-03-27T20:42:04.451Z,101038.04
2019-03-27T20:44:32.915Z,101039.09
2019-03-27T20:47:01.387Z,101033.98
2019-03-27T20:49:29.855Z,101031.67
2019-03-27T20:51:58.090Z,101037.05
2019-03-27T20:54:26.554Z,101037.17
2019-03-27T20:56:54.799Z,101032.98
2019-03-27T20:59:23.254Z,101036.95
2019-03-27T21:01:51.728Z,101036.81
2019-03-27T21:04:19.965Z,101034.90
2019-03-27T21:06:48.206Z,101037.20
2019-03-27T21:09:16.491Z,101036.08
2019-03-27T21:11:44.674Z,101042.72
2019-03-27T21:14:12.945Z,101040.03
2019-03-27T21:16:41.376Z,101036.83
2019-03-27T21:19:09.653Z,101037.47
2019-03-27T21:21:38.121Z,101039.77
2019-03-27T21:24:06.358Z,101037.59
2019-03-27T21:26:34.600Z,101038.27
2019-03-27T21:29:03.074Z,101044.78
2019-03-27T21:31:31.307Z,101045.80
2019-03-27T21:33:59.782Z,101046.81
2019-03-27T21:36:28.301Z,101047.70
2019-03-27T21:38:56.778Z,101044.09
2019-03-27T21:41:25.009Z,101046.27
2019-03-27T21:43:53.262Z,101050.35
2019-03-27T21:46:21.507Z,101054.44
2019-03-27T21:48:49.749Z,101050.85
2019-03-27T21:51:17.971Z,101053.69
2019-03-27T21:53:50.578Z,101057.39
2019-03-27T21:56:16.416Z,101061.09
2019-03-27T21:58:44.659Z,101059.44
2019-03-27T22:01:12.886Z,101062.88
2019-03-27T22:03:41.128Z,101059.19
2019-03-27T22:06:09.362Z,101064.39
2019-03-27T22:08:37.608Z,101067.84
2019-03-27T22:11:05.843Z,101066.06
2019-03-27T22:13:34.085Z,101073.64
2019-03-27T22:16:02.324Z,101080.03
2019-03-27T22:18:30.786Z,101074.67
2019-03-27T22:20:59.027Z,101080.68
2019-03-27T22:23:27.261Z,101074.80
2019-03-27T22:25:55.499Z,101074.94
2019-03-27T22:28:23.959Z,101074.55
2019-03-27T22:30:52.205Z,101084.27
2019-03-27T22:33:20.662Z,101084.27
2019-03-27T22:35:48.901Z,101079.16
2019-03-27T22:38:17.134Z,101079.77
2019-03-27T22:40:45.377Z,101083.88
2019-03-27T22:43:13.615Z,101092.31
2019-03-27T22:45:41.851Z,101098.19
2019-03-27T22:48:10.079Z,101093.80
2019-03-27T22:50:38.327Z,101094.81
2019-03-27T22:53:06.563Z,101097.61
2019-03-27T22:55:48.631Z,101097.36
2019-03-27T22:58:04.760Z,101096.34
2019-03-27T23:00:40.769Z,101099.98
2019-03-27T23:03:18.308Z,101097.41
2019-03-27T23:05:38.968Z,101102.65
2019-03-27T23:08:07.197Z,101098.06
2019-03-27T23:10:35.446Z,101101.89
2019-03-27T23:13:03.678Z,101103.54
2019-03-27T23:15:32.010Z,101097.28
2019-03-27T23:18:00.238Z,101101.09
2019-03-27T23:20:28.701Z,101100.20
2019-03-27T23:22:56.943Z,101093.90
2019-03-27T23:25:25.173Z,101098.59
2019-03-27T23:27:53.642Z,101095.14
2019-03-27T23:30:21.874Z,101090.15
2019-03-27T23:32:50.181Z,101096.41
2019-03-27T23:35:18.488Z,101095.52
2019-03-27T23:37:46.887Z,101094.87
2019-03-27T23:40:15.183Z,101102.77
2019-03-27T23:42:43.659Z,101098.16
2019-03-27T23:45:13.690Z,101102.52
2019-03-27T23:47:41.937Z,101098.16
2019-03-27T23:50:10.323Z,101092.79
2019-03-27T23:52:38.553Z,101088.82
2019-03-27T23:55:06.957Z,101084.77
2019-03-27T23:57:35.421Z,101091.81
